createdAt,value
2022-07-31T00:00:59.010Z,2.80
2022-07-31T00:03:48.053Z,2.70
2022-07-31T00:06:37.086Z,3.10
2022-07-31T00:09:52.878Z,2.80
2022-07-31T00:12:35.808Z,3.00
2022-07-31T00:15:25.038Z,2.90
2022-07-31T00:18:14.061Z,3.20
2022-07-31T00:21:02.955Z,3.50
2022-07-31T00:23:53.170Z,3.20
2022-07-31T00:26:42.676Z,3.00
2022-07-31T00:29:34.799Z,2.90
2022-07-31T00:32:24.127Z,2.90
2022-07-31T00:35:14.358Z,2.90
2022-07-31T00:38:26.232Z,2.90
2022-07-31T00:41:13.064Z,3.00
2022-07-31T00:44:01.864Z,2.80
2022-07-31T00:46:51.689Z,3.20
2022-07-31T00:49:40.690Z,3.10
2022-07-31T00:52:29.696Z,2.70
2022-07-31T00:55:19.999Z,2.80
2022-07-31T00:57:59.729Z,2.90
2022-07-31T01:00:49.195Z,2.60
2022-07-31T01:03:38.038Z,3.10
2022-07-31T01:06:19.841Z,2.90
2022-07-31T01:09:09.376Z,2.80
2022-07-31T01:12:03.526Z,2.90
2022-07-31T01:14:56.912Z,2.80
2022-07-31T01:17:48.441Z,2.80
2022-07-31T01:20:30.159Z,2.90
2022-07-31T01:28:11.358Z,2.60
2022-07-31T01:31:25.466Z,2.80
2022-07-31T01:34:24.295Z,2.70
2022-07-31T01:37:20.305Z,3.20
2022-07-31T01:40:15.389Z,2.30
2022-07-31T01:43:11.426Z,2.10
2022-07-31T01:46:02.730Z,2.60
2022-07-31T01:48:55.580Z,2.40
2022-07-31T01:51:46.058Z,2.70
2022-07-31T01:54:36.573Z,2.60
2022-07-31T01:57:27.124Z,2.50
2022-07-31T02:00:23.553Z,2.50
2022-07-31T02:03:43.582Z,2.40
2022-07-31T02:06:35.022Z,2.40
2022-07-31T02:09:25.592Z,2.40
2022-07-31T02:12:15.545Z,3.00
2022-07-31T02:15:06.730Z,3.60
2022-07-31T02:17:56.938Z,2.70
2022-07-31T02:20:49.001Z,2.90
2022-07-31T02:23:38.299Z,2.50
2022-07-31T02:26:31.526Z,2.70
2022-07-31T02:29:21.462Z,2.60
2022-07-31T02:32:11.885Z,2.70
2022-07-31T02:35:03.148Z,2.50
2022-07-31T02:37:54.904Z,2.50
2022-07-31T02:40:44.836Z,2.80
2022-07-31T02:43:37.076Z,2.80
2022-07-31T02:46:29.404Z,2.50
2022-07-31T02:49:19.312Z,2.50
2022-07-31T02:52:28.314Z,2.50
2022-07-31T02:55:18.280Z,3.20
2022-07-31T02:58:08.526Z,2.80
2022-07-31T03:01:04.615Z,2.90
2022-07-31T03:03:54.233Z,3.00
2022-07-31T03:06:43.587Z,2.60
2022-07-31T03:14:39.922Z,2.70
2022-07-31T03:18:14.301Z,2.60
2022-07-31T03:21:03.216Z,2.50
2022-07-31T03:23:53.598Z,2.90
2022-07-31T03:26:43.483Z,2.60
2022-07-31T03:29:43.505Z,2.60
2022-07-31T03:32:40.522Z,2.50
2022-07-31T03:35:30.648Z,2.40
2022-07-31T03:38:39.165Z,2.40
2022-07-31T03:41:20.346Z,2.50
2022-07-31T03:44:10.911Z,2.60
2022-07-31T03:47:01.748Z,2.70
2022-07-31T03:49:51.746Z,3.00
2022-07-31T03:52:41.823Z,2.70
2022-07-31T03:55:33.546Z,2.70
2022-07-31T03:58:24.261Z,2.40
2022-07-31T04:01:22.525Z,2.70
2022-07-31T04:04:13.491Z,2.80
2022-07-31T04:07:02.722Z,2.70
2022-07-31T04:09:52.899Z,2.50
2022-07-31T04:12:42.222Z,2.80
2022-07-31T04:15:31.444Z,2.90
2022-07-31T04:18:20.418Z,3.00
2022-07-31T04:21:10.091Z,2.50
2022-07-31T04:23:59.609Z,2.70
2022-07-31T04:26:59.314Z,2.70
2022-07-31T04:29:49.199Z,2.70
2022-07-31T04:32:38.433Z,2.30
2022-07-31T04:35:27.817Z,2.40
2022-07-31T04:38:17.368Z,2.90
2022-07-31T04:41:07.859Z,2.50
2022-07-31T04:43:57.699Z,2.30
2022-07-31T04:46:47.228Z,2.20
2022-07-31T04:49:37.478Z,2.40
2022-07-31T04:52:26.748Z,2.30
2022-07-31T04:55:16.980Z,2.00
2022-07-31T04:58:06.510Z,1.90
2022-07-31T05:00:57.072Z,1.90
2022-07-31T05:03:46.456Z,1.80
2022-07-31T05:06:39.295Z,2.10
2022-07-31T05:09:32.796Z,1.50
2022-07-31T05:12:26.137Z,1.80
2022-07-31T05:15:16.785Z,1.30
2022-07-31T05:18:07.488Z,1.20
2022-07-31T05:20:55.454Z,1.50
2022-07-31T05:23:45.893Z,1.50
2022-07-31T05:26:35.551Z,1.40
2022-07-31T05:29:24.812Z,1.20
2022-07-31T05:32:37.344Z,1.00
2022-07-31T05:35:25.866Z,1.40
2022-07-31T05:38:15.004Z,1.10
2022-07-31T05:41:10.246Z,1.20
2022-07-31T05:44:02.488Z,1.20
2022-07-31T05:49:43.074Z,1.00
2022-07-31T05:52:32.370Z,0.90
2022-07-31T05:55:37.116Z,0.90
2022-07-31T05:58:41.820Z,0.80
2022-07-31T06:01:32.338Z,1.00
2022-07-31T06:04:21.661Z,0.80
2022-07-31T06:07:10.736Z,0.80
2022-07-31T06:10:01.725Z,0.90
2022-07-31T06:12:45.587Z,0.90
2022-07-31T06:15:36.800Z,0.90
2022-07-31T06:18:26.454Z,0.70
2022-07-31T06:24:05.447Z,1.00
2022-07-31T06:26:58.798Z,0.80
2022-07-31T06:29:49.506Z,0.90
2022-07-31T06:32:49.481Z,0.90
2022-07-31T06:35:29.315Z,1.00
2022-07-31T06:38:16.781Z,0.90
2022-07-31T06:41:04.187Z,0.90
2022-07-31T06:43:57.369Z,0.70
2022-07-31T06:46:49.618Z,0.90
2022-07-31T06:49:40.259Z,0.80
2022-07-31T06:52:30.109Z,0.70
2022-07-31T06:55:19.392Z,0.60
2022-07-31T06:58:08.560Z,0.70
2022-07-31T07:01:25.382Z,0.70
2022-07-31T07:04:14.683Z,0.70
2022-07-31T07:07:04.430Z,0.70
2022-07-31T07:09:54.349Z,0.60
2022-07-31T07:12:43.570Z,0.70
2022-07-31T07:15:32.902Z,0.80
2022-07-31T07:18:22.841Z,0.80
2022-07-31T07:21:13.742Z,0.80
2022-07-31T07:24:03.682Z,0.80
2022-07-31T07:26:56.135Z,0.80
2022-07-31T07:29:44.930Z,0.90
2022-07-31T07:32:33.856Z,0.80
2022-07-31T07:35:23.177Z,0.90
2022-07-31T07:38:20.487Z,0.80
2022-07-31T07:41:10.322Z,0.90
2022-07-31T07:43:54.318Z,0.80
2022-07-31T07:46:46.273Z,0.90
2022-07-31T07:49:35.550Z,0.90
2022-07-31T07:52:22.837Z,1.20
2022-07-31T07:55:12.273Z,1.20
2022-07-31T07:57:59.971Z,1.20
2022-07-31T08:01:11.948Z,1.20
2022-07-31T08:04:01.229Z,1.20
2022-07-31T08:06:51.490Z,1.70
2022-07-31T08:09:40.777Z,1.50
2022-07-31T08:12:40.288Z,1.60
2022-07-31T08:15:30.613Z,1.80
2022-07-31T08:18:28.450Z,2.00
2022-07-31T08:21:17.933Z,2.30
2022-07-31T08:24:08.082Z,1.90
2022-07-31T08:27:15.514Z,2.00
2022-07-31T08:30:09.966Z,2.30
2022-07-31T08:32:58.821Z,2.50
2022-07-31T08:35:54.421Z,2.40
2022-07-31T08:38:43.274Z,2.50
2022-07-31T08:41:51.757Z,2.40
2022-07-31T08:44:43.232Z,2.40
2022-07-31T08:47:35.167Z,2.40
2022-07-31T08:50:24.774Z,2.50
2022-07-31T08:53:16.750Z,2.40
2022-07-31T08:56:25.658Z,2.30
2022-07-31T08:59:16.931Z,2.00
2022-07-31T09:02:06.107Z,2.10
2022-07-31T09:04:56.643Z,2.10
2022-07-31T09:07:45.656Z,2.30
2022-07-31T09:10:50.264Z,2.60
2022-07-31T09:13:41.460Z,2.90
2022-07-31T09:18:00.772Z,2.00
2022-07-31T09:20:56.619Z,2.80
2022-07-31T09:23:46.898Z,2.10
2022-07-31T09:26:40.311Z,2.60
2022-07-31T09:29:35.853Z,2.30
2022-07-31T09:32:24.967Z,2.30
2022-07-31T09:35:16.765Z,2.50
2022-07-31T09:38:06.144Z,2.30
2022-07-31T09:40:58.016Z,2.70
2022-07-31T09:43:56.448Z,2.50
2022-07-31T09:46:47.661Z,2.80
2022-07-31T09:49:37.714Z,2.90
2022-07-31T09:52:28.817Z,2.90
2022-07-31T09:55:17.782Z,2.70
2022-07-31T09:58:07.527Z,2.80
2022-07-31T10:00:57.918Z,2.80
2022-07-31T10:03:56.481Z,2.60
2022-07-31T10:06:49.023Z,2.80
2022-07-31T10:09:47.893Z,2.70
2022-07-31T10:12:42.429Z,3.00
2022-07-31T10:15:35.735Z,2.80
2022-07-31T10:18:45.751Z,2.60
2022-07-31T10:21:40.204Z,3.20
2022-07-31T10:24:36.107Z,2.50
2022-07-31T10:27:24.896Z,2.70
2022-07-31T10:30:19.869Z,2.90
2022-07-31T10:33:40.829Z,2.80
2022-07-31T10:36:22.086Z,2.50
2022-07-31T10:39:31.811Z,3.10
2022-07-31T10:42:31.583Z,2.60
2022-07-31T10:45:21.513Z,3.00
2022-07-31T10:48:14.877Z,2.70
2022-07-31T10:51:04.673Z,2.70
2022-07-31T10:53:57.418Z,2.60
2022-07-31T10:56:47.250Z,2.80
2022-07-31T10:59:38.989Z,2.30
2022-07-31T11:02:30.773Z,2.40
2022-07-31T11:05:22.918Z,2.50
2022-07-31T11:08:11.676Z,2.60
2022-07-31T11:11:06.027Z,2.30
2022-07-31T11:13:55.594Z,2.20
2022-07-31T11:17:04.047Z,2.40
2022-07-31T11:19:57.438Z,2.70
2022-07-31T11:22:55.782Z,2.30
2022-07-31T11:25:46.213Z,2.30
2022-07-31T11:28:36.376Z,2.40
2022-07-31T11:31:30.201Z,2.30
2022-07-31T11:34:21.791Z,2.30
2022-07-31T11:37:17.791Z,2.20
2022-07-31T11:40:09.851Z,2.00
2022-07-31T11:46:09.845Z,2.40
2022-07-31T11:49:01.561Z,2.10
2022-07-31T11:51:59.581Z,2.10
2022-07-31T11:55:08.574Z,2.30
2022-07-31T11:57:58.209Z,2.40
2022-07-31T12:00:49.105Z,2.10
2022-07-31T12:03:39.393Z,2.00
2022-07-31T12:06:30.946Z,2.30
2022-07-31T12:10:01.153Z,2.20
2022-07-31T12:12:34.590Z,2.70
2022-07-31T12:15:24.103Z,2.80
2022-07-31T12:18:15.084Z,3.40
2022-07-31T12:20:56.686Z,2.90
2022-07-31T12:23:48.098Z,3.30
2022-07-31T12:26:37.415Z,3.20
2022-07-31T12:29:33.631Z,3.60
2022-07-31T12:32:27.100Z,3.50
2022-07-31T12:35:09.797Z,4.30
2022-07-31T12:37:59.028Z,4.20
2022-07-31T12:40:48.005Z,3.80
2022-07-31T12:43:51.641Z,4.50
2022-07-31T12:46:41.638Z,4.60
2022-07-31T12:49:31.649Z,4.20
2022-07-31T12:52:21.222Z,4.30
2022-07-31T12:55:12.043Z,4.20
2022-07-31T12:58:01.202Z,4.10
2022-07-31T13:00:50.270Z,3.70
2022-07-31T13:03:45.745Z,3.50
2022-07-31T13:06:38.544Z,3.30
2022-07-31T13:09:27.630Z,3.60
2022-07-31T13:12:17.124Z,3.20
2022-07-31T13:15:08.144Z,3.20
2022-07-31T13:17:57.941Z,3.40
2022-07-31T13:20:47.198Z,3.80
2022-07-31T13:23:36.131Z,3.70
2022-07-31T13:26:26.507Z,4.00
2022-07-31T13:29:16.338Z,4.30
2022-07-31T13:32:08.216Z,3.90
2022-07-31T13:35:26.742Z,3.50
2022-07-31T13:38:10.042Z,3.70
2022-07-31T13:41:17.266Z,3.80
2022-07-31T13:44:06.550Z,3.40
2022-07-31T13:46:56.110Z,3.60
2022-07-31T13:49:44.983Z,3.20
2022-07-31T13:52:34.307Z,3.20
2022-07-31T13:55:23.129Z,3.50
2022-07-31T13:58:12.232Z,3.30
2022-07-31T14:01:04.407Z,3.90
2022-07-31T14:03:54.770Z,3.40
2022-07-31T14:06:44.595Z,3.10
2022-07-31T14:09:35.501Z,3.70
2022-07-31T14:12:24.758Z,3.00
2022-07-31T14:15:14.352Z,3.10
2022-07-31T14:18:08.066Z,3.00
2022-07-31T14:21:00.115Z,3.20
2022-07-31T14:23:50.100Z,2.70
2022-07-31T14:26:39.404Z,3.00
2022-07-31T14:29:36.036Z,2.60
2022-07-31T14:32:25.713Z,2.70
2022-07-31T14:35:10.013Z,2.80
2022-07-31T14:38:03.193Z,2.90
2022-07-31T14:40:54.655Z,2.60
2022-07-31T14:43:45.682Z,2.60
2022-07-31T14:46:49.698Z,2.80
2022-07-31T14:50:08.592Z,3.10
2022-07-31T14:52:51.868Z,2.80
2022-07-31T14:55:41.524Z,2.60
2022-07-31T14:58:31.435Z,2.70
2022-07-31T15:01:23.477Z,2.60
2022-07-31T15:04:16.397Z,2.60
2022-07-31T15:07:33.720Z,2.00
2022-07-31T15:10:15.756Z,1.40
2022-07-31T15:13:05.406Z,1.50
2022-07-31T15:16:00.307Z,1.80
2022-07-31T15:18:51.597Z,1.40
2022-07-31T15:21:40.990Z,1.40
2022-07-31T15:24:51.162Z,1.60
2022-07-31T15:27:40.686Z,1.30
2022-07-31T15:30:29.897Z,1.50
2022-07-31T15:33:20.431Z,1.40
2022-07-31T15:36:14.780Z,1.40
2022-07-31T15:39:04.824Z,1.60
2022-07-31T15:41:57.552Z,1.60
2022-07-31T15:44:47.109Z,1.60
2022-07-31T15:47:36.814Z,1.80
2022-07-31T15:50:25.813Z,1.70
2022-07-31T15:53:16.014Z,1.20
2022-07-31T15:56:23.138Z,1.40
2022-07-31T15:59:12.293Z,1.80
2022-07-31T16:02:02.678Z,1.00
2022-07-31T16:04:58.533Z,1.30
2022-07-31T16:08:29.177Z,1.40
2022-07-31T16:10:59.380Z,0.90
2022-07-31T16:13:48.893Z,1.30
2022-07-31T16:16:43.020Z,1.20
2022-07-31T16:19:41.109Z,1.10
2022-07-31T16:23:46.560Z,1.10
2022-07-31T16:26:58.058Z,1.00
2022-07-31T16:29:58.779Z,1.10
2022-07-31T16:32:57.383Z,1.20
2022-07-31T16:35:48.967Z,1.60
2022-07-31T16:43:50.771Z,2.50
2022-07-31T16:46:37.908Z,2.60
2022-07-31T16:49:35.991Z,2.70
2022-07-31T16:52:25.769Z,2.90
2022-07-31T16:55:15.146Z,3.10
2022-07-31T16:58:05.110Z,3.70
2022-07-31T17:00:56.154Z,3.30
2022-07-31T17:04:02.594Z,3.30
2022-07-31T17:06:53.305Z,3.80
2022-07-31T17:09:42.857Z,3.50
2022-07-31T17:12:32.213Z,3.80
2022-07-31T17:15:22.474Z,3.30
2022-07-31T17:18:11.922Z,3.10
2022-07-31T17:21:00.231Z,3.00
2022-07-31T17:23:51.018Z,3.60
2022-07-31T17:26:41.238Z,3.40
2022-07-31T17:29:31.497Z,3.90
2022-07-31T17:32:21.645Z,4.00
2022-07-31T17:35:13.670Z,3.50
2022-07-31T17:38:03.837Z,3.80
2022-07-31T17:40:54.770Z,4.40
2022-07-31T17:43:50.575Z,3.60
2022-07-31T17:46:48.078Z,4.30
2022-07-31T17:49:45.501Z,4.80
2022-07-31T17:52:36.795Z,5.00
2022-07-31T17:55:34.467Z,4.80
2022-07-31T17:58:24.415Z,4.90
2022-07-31T18:01:13.679Z,5.30
2022-07-31T18:04:03.668Z,4.90
2022-07-31T18:06:54.888Z,5.40
2022-07-31T18:09:46.470Z,4.50
2022-07-31T18:12:56.791Z,4.40
2022-07-31T18:15:44.980Z,4.60
2022-07-31T18:18:34.361Z,4.10
2022-07-31T18:21:23.415Z,4.50
2022-07-31T18:24:12.831Z,4.40
2022-07-31T18:27:03.309Z,4.50
2022-07-31T18:29:56.286Z,4.50
2022-07-31T18:32:45.757Z,4.40
2022-07-31T18:35:34.731Z,4.30
2022-07-31T18:38:23.932Z,4.40
2022-07-31T18:41:13.117Z,3.80
2022-07-31T18:44:02.289Z,4.20
2022-07-31T18:46:55.447Z,4.90
2022-07-31T18:50:59.544Z,4.00
2022-07-31T18:52:47.604Z,3.90
2022-07-31T18:55:37.166Z,4.20
2022-07-31T18:58:27.075Z,4.40
2022-07-31T19:01:16.133Z,4.30
2022-07-31T19:04:06.777Z,4.10
2022-07-31T19:06:57.636Z,3.90
2022-07-31T19:09:38.199Z,3.90
2022-07-31T19:12:27.416Z,3.90
2022-07-31T19:15:19.715Z,4.10
2022-07-31T19:18:09.239Z,3.90
2022-07-31T19:21:17.969Z,4.20
2022-07-31T19:27:02.546Z,3.70
2022-07-31T19:29:52.226Z,4.10
2022-07-31T19:32:41.687Z,3.50
2022-07-31T19:35:23.029Z,3.80
2022-07-31T19:38:15.651Z,4.00
2022-07-31T19:41:07.561Z,3.40
2022-07-31T19:44:07.774Z,3.60
2022-07-31T19:46:57.940Z,3.20
2022-07-31T19:49:38.095Z,3.00
2022-07-31T19:52:17.535Z,3.20
2022-07-31T19:55:13.706Z,3.10
2022-07-31T19:58:02.456Z,3.20
2022-07-31T20:00:55.581Z,3.40
2022-07-31T20:03:40.253Z,2.80
2022-07-31T20:06:41.491Z,2.90
2022-07-31T20:09:31.823Z,3.00
2022-07-31T20:12:24.788Z,2.70
2022-07-31T20:15:13.695Z,2.40
2022-07-31T20:18:03.827Z,2.60
2022-07-31T20:20:58.100Z,2.80
2022-07-31T20:23:49.093Z,2.60
2022-07-31T20:26:38.276Z,2.50
2022-07-31T20:29:27.831Z,2.60
2022-07-31T20:32:18.018Z,2.50
2022-07-31T20:35:31.139Z,2.20
2022-07-31T20:38:49.560Z,2.60
2022-07-31T20:42:05.634Z,2.90
2022-07-31T20:45:34.049Z,2.40
2022-07-31T20:48:37.231Z,3.00
2022-07-31T20:51:26.670Z,2.80
2022-07-31T20:54:16.047Z,2.80
2022-07-31T20:57:06.098Z,2.40
2022-07-31T20:59:56.326Z,2.60
2022-07-31T21:02:46.054Z,2.90
2022-07-31T21:05:36.053Z,2.50
2022-07-31T21:08:15.703Z,2.50
2022-07-31T21:11:05.601Z,2.40
2022-07-31T21:13:57.667Z,2.10
2022-07-31T21:16:46.843Z,2.60
2022-07-31T21:19:39.618Z,2.70
2022-07-31T21:22:28.920Z,2.90
2022-07-31T21:25:18.760Z,2.50
2022-07-31T21:27:51.129Z,2.60
2022-07-31T21:30:49.355Z,3.10
2022-07-31T21:33:53.083Z,3.10
2022-07-31T21:36:43.615Z,2.70
2022-07-31T21:39:36.097Z,3.50
2022-07-31T21:42:26.325Z,3.50
2022-07-31T21:45:18.897Z,3.50
2022-07-31T21:48:14.657Z,3.40
2022-07-31T21:51:05.442Z,3.20
2022-07-31T21:53:58.148Z,3.40
2022-07-31T21:56:47.862Z,3.00
2022-07-31T21:59:38.252Z,3.30
2022-07-31T22:02:30.110Z,3.30
2022-07-31T22:05:38.059Z,3.30
2022-07-31T22:08:27.601Z,3.40
2022-07-31T22:11:17.194Z,3.70
2022-07-31T22:14:08.560Z,3.60
2022-07-31T22:17:01.560Z,3.70
2022-07-31T22:19:57.992Z,3.10
2022-07-31T22:22:48.007Z,3.80
2022-07-31T22:25:38.813Z,3.40
2022-07-31T22:28:30.204Z,3.70
2022-07-31T22:31:21.023Z,3.30
2022-07-31T22:34:10.683Z,3.50
2022-07-31T22:54:20.453Z,3.10
2022-07-31T22:57:09.591Z,2.80
2022-07-31T22:59:58.675Z,2.70
2022-07-31T23:02:47.727Z,3.20
2022-07-31T23:06:28.184Z,2.90
2022-07-31T23:08:46.476Z,2.60
2022-07-31T23:11:31.937Z,2.80
2022-07-31T23:14:21.225Z,2.70
2022-07-31T23:17:23.434Z,2.60
2022-07-31T23:20:15.408Z,2.90
2022-07-31T23:23:06.528Z,2.60
2022-07-31T23:25:57.380Z,2.70
2022-07-31T23:28:47.024Z,2.30
2022-07-31T23:31:45.004Z,2.00
2022-07-31T23:34:36.375Z,2.70
2022-07-31T23:37:27.859Z,2.40
2022-07-31T23:40:16.612Z,2.60
2022-07-31T23:43:06.343Z,2.30
2022-07-31T23:45:58.706Z,2.50
2022-07-31T23:48:47.894Z,2.60
2022-07-31T23:51:37.041Z,2.50
2022-07-31T23:54:35.294Z,2.70
2022-07-31T23:57:24.903Z,2.40
